Aguilares, Texas
Current Conditions -  °F | °C
As of 4:35 PM on Saturday 20 Dec 2014 (Local Time) from KHBV Reporting Station
Haze Haze  
Wind Chill: 53°   Ceiling: 1300
Heat Index: 53°   Visibility: 4mi
Dew Point: 47°   Wind: 5mph
Humidity: 81%   Direction: 40°NE
Pressure: 30.14"   Gusts: NA
Location:  27.4459°N, 99.0184°W
Report Text: KHBV 202235Z AUTO 04004KT 4SM HZ OVC013 12/08 A3014 RMK AO2 T01150084
Loading
Personal Weather Stations






























Interactive Weather Map New forecast layout! Learn more

10-Day Weather Forecast

Advertisements
Track Severe Weather on mobile